sensor_id;sensor_type;location;lat;lon;timestamp;P1;durP1;ratioP1;P2;durP2;ratioP2
9330;SDS011;4704;50.470;12.072;2022-09-12T00:01:53;2.90;;;2.60;;
9330;SDS011;4704;50.470;12.072;2022-09-12T00:04:22;2.63;;;2.50;;
9330;SDS011;4704;50.470;12.072;2022-09-12T00:06:51;2.67;;;2.22;;
9330;SDS011;4704;50.470;12.072;2022-09-12T00:09:18;2.60;;;2.40;;
9330;SDS011;4704;50.470;12.072;2022-09-12T00:11:46;2.83;;;2.63;;
9330;SDS011;4704;50.470;12.072;2022-09-12T00:14:14;2.50;;;2.40;;
9330;SDS011;4704;50.470;12.072;2022-09-12T00:16:42;2.70;;;2.50;;
9330;SDS011;4704;50.470;12.072;2022-09-12T00:19:10;2.60;;;2.40;;
9330;SDS011;4704;50.470;12.072;2022-09-12T00:21:39;2.42;;;2.33;;
9330;SDS011;4704;50.470;12.072;2022-09-12T00:24:07;2.75;;;2.55;;
9330;SDS011;4704;50.470;12.072;2022-09-12T00:26:35;2.58;;;2.38;;
9330;SDS011;4704;50.470;12.072;2022-09-12T00:29:03;2.83;;;2.63;;
9330;SDS011;4704;50.470;12.072;2022-09-12T00:31:30;2.65;;;2.45;;
9330;SDS011;4704;50.470;12.072;2022-09-12T00:33:58;2.47;;;2.33;;
9330;SDS011;4704;50.470;12.072;2022-09-12T00:36:26;2.90;;;2.70;;
9330;SDS011;4704;50.470;12.072;2022-09-12T00:38:55;3.10;;;2.90;;
9330;SDS011;4704;50.470;12.072;2022-09-12T00:41:23;2.50;;;2.40;;
9330;SDS011;4704;50.470;12.072;2022-09-12T00:43:51;2.60;;;2.50;;
9330;SDS011;4704;50.470;12.072;2022-09-12T00:46:26;2.95;;;2.75;;
9330;SDS011;4704;50.470;12.072;2022-09-12T00:48:56;2.78;;;2.58;;
9330;SDS011;4704;50.470;12.072;2022-09-12T00:51:24;2.90;;;2.70;;
9330;SDS011;4704;50.470;12.072;2022-09-12T00:53:52;2.47;;;2.38;;
9330;SDS011;4704;50.470;12.072;2022-09-12T00:56:22;2.70;;;2.58;;
9330;SDS011;4704;50.470;12.072;2022-09-12T00:58:51;2.85;;;2.65;;
9330;SDS011;4704;50.470;12.072;2022-09-12T01:01:21;2.92;;;2.72;;
9330;SDS011;4704;50.470;12.072;2022-09-12T01:03:48;2.78;;;2.58;;
9330;SDS011;4704;50.470;12.072;2022-09-12T01:06:17;3.03;;;2.83;;
9330;SDS011;4704;50.470;12.072;2022-09-12T01:08:47;2.92;;;2.72;;
9330;SDS011;4704;50.470;12.072;2022-09-12T01:11:14;2.47;;;2.38;;
9330;SDS011;4704;50.470;12.072;2022-09-12T01:13:44;2.65;;;2.45;;
9330;SDS011;4704;50.470;12.072;2022-09-12T01:16:12;2.60;;;2.40;;
9330;SDS011;4704;50.470;12.072;2022-09-12T01:18:51;2.50;;;2.40;;
9330;SDS011;4704;50.470;12.072;2022-09-12T01:21:23;2.70;;;2.50;;
9330;SDS011;4704;50.470;12.072;2022-09-12T01:24:01;2.70;;;2.50;;
9330;SDS011;4704;50.470;12.072;2022-09-12T01:26:40;2.22;;;2.13;;
9330;SDS011;4704;50.470;12.072;2022-09-12T01:29:21;2.53;;;2.42;;
9330;SDS011;4704;50.470;12.072;2022-09-12T01:31:54;2.58;;;2.47;;
9330;SDS011;4704;50.470;12.072;2022-09-12T01:34:26;2.70;;;2.50;;
9330;SDS011;4704;50.470;12.072;2022-09-12T01:36:58;2.40;;;2.30;;
9330;SDS011;4704;50.470;12.072;2022-09-12T01:39:28;2.60;;;2.50;;
9330;SDS011;4704;50.470;12.072;2022-09-12T01:42:01;2.60;;;2.40;;
9330;SDS011;4704;50.470;12.072;2022-09-12T01:44:35;2.40;;;2.30;;
9330;SDS011;4704;50.470;12.072;2022-09-12T01:47:05;2.30;;;2.20;;
9330;SDS011;4704;50.470;12.072;2022-09-12T01:49:37;2.53;;;2.33;;
9330;SDS011;4704;50.470;12.072;2022-09-12T01:52:07;2.35;;;2.25;;
9330;SDS011;4704;50.470;12.072;2022-09-12T01:54:37;2.70;;;2.50;;
9330;SDS011;4704;50.470;12.072;2022-09-12T01:57:07;2.40;;;2.25;;
9330;SDS011;4704;50.470;12.072;2022-09-12T01:59:38;2.20;;;2.10;;
9330;SDS011;4704;50.470;12.072;2022-09-12T02:02:08;2.55;;;2.35;;
9330;SDS011;4704;50.470;12.072;2022-09-12T02:04:38;2.50;;;2.40;;
9330;SDS011;4704;50.470;12.072;2022-09-12T02:07:07;2.85;;;2.65;;
9330;SDS011;4704;50.470;12.072;2022-09-12T02:09:37;2.33;;;2.22;;
9330;SDS011;4704;50.470;12.072;2022-09-12T02:12:08;2.47;;;2.38;;
9330;SDS011;4704;50.470;12.072;2022-09-12T02:14:39;2.35;;;2.25;;
9330;SDS011;4704;50.470;12.072;2022-09-12T02:17:10;2.47;;;2.38;;
9330;SDS011;4704;50.470;12.072;2022-09-12T02:19:39;2.35;;;2.25;;
9330;SDS011;4704;50.470;12.072;2022-09-12T02:22:07;2.33;;;2.22;;
9330;SDS011;4704;50.470;12.072;2022-09-12T02:24:36;2.63;;;2.42;;
9330;SDS011;4704;50.470;12.072;2022-09-12T02:27:05;2.40;;;2.30;;
9330;SDS011;4704;50.470;12.072;2022-09-12T02:29:34;2.40;;;2.30;;
9330;SDS011;4704;50.470;12.072;2022-09-12T02:32:03;2.45;;;2.35;;
9330;SDS011;4704;50.470;12.072;2022-09-12T02:34:35;2.25;;;2.15;;
9330;SDS011;4704;50.470;12.072;2022-09-12T02:37:11;2.13;;;2.03;;
9330;SDS011;4704;50.470;12.072;2022-09-12T02:39:43;2.50;;;2.40;;
9330;SDS011;4704;50.470;12.072;2022-09-12T02:42:10;2.30;;;2.10;;
9330;SDS011;4704;50.470;12.072;2022-09-12T02:44:38;2.30;;;2.20;;
9330;SDS011;4704;50.470;12.072;2022-09-12T02:47:07;2.65;;;2.50;;
9330;SDS011;4704;50.470;12.072;2022-09-12T02:49:37;2.40;;;2.30;;
9330;SDS011;4704;50.470;12.072;2022-09-12T02:52:04;2.08;;;1.98;;
9330;SDS011;4704;50.470;12.072;2022-09-12T02:54:32;2.15;;;2.05;;
9330;SDS011;4704;50.470;12.072;2022-09-12T02:57:01;2.38;;;2.28;;
9330;SDS011;4704;50.470;12.072;2022-09-12T02:59:29;2.13;;;2.03;;
9330;SDS011;4704;50.470;12.072;2022-09-12T03:02:08;2.10;;;2.00;;
9330;SDS011;4704;50.470;12.072;2022-09-12T03:04:46;2.17;;;2.08;;
9330;SDS011;4704;50.470;12.072;2022-09-12T03:07:15;2.05;;;1.95;;
9330;SDS011;4704;50.470;12.072;2022-09-12T03:09:45;2.40;;;2.22;;
9330;SDS011;4704;50.470;12.072;2022-09-12T03:12:17;2.00;;;1.90;;
9330;SDS011;4704;50.470;12.072;2022-09-12T03:14:50;2.17;;;2.08;;
9330;SDS011;4704;50.470;12.072;2022-09-12T03:17:21;2.00;;;1.90;;
9330;SDS011;4704;50.470;12.072;2022-09-12T03:19:53;2.50;;;2.30;;
9330;SDS011;4704;50.470;12.072;2022-09-12T03:22:27;2.15;;;2.05;;
9330;SDS011;4704;50.470;12.072;2022-09-12T03:24:55;2.30;;;2.20;;
9330;SDS011;4704;50.470;12.072;2022-09-12T03:27:29;1.90;;;1.80;;
9330;SDS011;4704;50.470;12.072;2022-09-12T03:29:58;2.10;;;2.00;;
9330;SDS011;4704;50.470;12.072;2022-09-12T03:32:39;2.20;;;2.10;;
9330;SDS011;4704;50.470;12.072;2022-09-12T03:35:08;1.90;;;1.80;;
9330;SDS011;4704;50.470;12.072;2022-09-12T03:37:36;1.90;;;1.80;;
9330;SDS011;4704;50.470;12.072;2022-09-12T03:40:03;2.03;;;1.92;;
9330;SDS011;4704;50.470;12.072;2022-09-12T03:42:31;1.90;;;1.80;;
9330;SDS011;4704;50.470;12.072;2022-09-12T03:44:58;1.70;;;1.60;;
9330;SDS011;4704;50.470;12.072;2022-09-12T03:47:26;1.80;;;1.70;;
9330;SDS011;4704;50.470;12.072;2022-09-12T03:49:53;1.75;;;1.65;;
9330;SDS011;4704;50.470;12.072;2022-09-12T03:52:22;1.80;;;1.70;;
9330;SDS011;4704;50.470;12.072;2022-09-12T03:54:49;1.65;;;1.55;;
9330;SDS011;4704;50.470;12.072;2022-09-12T03:57:16;1.80;;;1.70;;
9330;SDS011;4704;50.470;12.072;2022-09-12T03:59:44;1.50;;;1.40;;
9330;SDS011;4704;50.470;12.072;2022-09-12T04:02:11;1.80;;;1.70;;
9330;SDS011;4704;50.470;12.072;2022-09-12T04:04:39;1.70;;;1.60;;
9330;SDS011;4704;50.470;12.072;2022-09-12T04:07:07;1.50;;;1.40;;
9330;SDS011;4704;50.470;12.072;2022-09-12T04:09:36;1.50;;;1.40;;
9330;SDS011;4704;50.470;12.072;2022-09-12T04:12:04;1.70;;;1.60;;
9330;SDS011;4704;50.470;12.072;2022-09-12T04:14:32;1.70;;;1.60;;
9330;SDS011;4704;50.470;12.072;2022-09-12T04:16:59;1.60;;;1.50;;
9330;SDS011;4704;50.470;12.072;2022-09-12T04:19:27;1.67;;;1.58;;
9330;SDS011;4704;50.470;12.072;2022-09-12T04:21:54;1.70;;;1.60;;
9330;SDS011;4704;50.470;12.072;2022-09-12T04:24:22;1.52;;;1.42;;
9330;SDS011;4704;50.470;12.072;2022-09-12T04:26:50;1.60;;;1.50;;
9330;SDS011;4704;50.470;12.072;2022-09-12T04:29:17;1.50;;;1.40;;
9330;SDS011;4704;50.470;12.072;2022-09-12T04:31:45;1.60;;;1.50;;
9330;SDS011;4704;50.470;12.072;2022-09-12T04:34:13;1.55;;;1.45;;
9330;SDS011;4704;50.470;12.072;2022-09-12T04:36:40;1.60;;;1.50;;
9330;SDS011;4704;50.470;12.072;2022-09-12T04:39:08;1.35;;;1.10;;
9330;SDS011;4704;50.470;12.072;2022-09-12T04:41:37;1.52;;;1.42;;
9330;SDS011;4704;50.470;12.072;2022-09-12T04:44:07;1.50;;;1.40;;
9330;SDS011;4704;50.470;12.072;2022-09-12T04:46:36;1.40;;;1.40;;
9330;SDS011;4704;50.470;12.072;2022-09-12T04:49:04;1.63;;;1.52;;
9330;SDS011;4704;50.470;12.072;2022-09-12T04:51:32;1.35;;;1.30;;
9330;SDS011;4704;50.470;12.072;2022-09-12T04:54:00;1.17;;;1.17;;
9330;SDS011;4704;50.470;12.072;2022-09-12T04:56:28;1.45;;;1.35;;
9330;SDS011;4704;50.470;12.072;2022-09-12T04:58:56;1.50;;;1.40;;
9330;SDS011;4704;50.470;12.072;2022-09-12T05:01:26;1.30;;;1.30;;
9330;SDS011;4704;50.470;12.072;2022-09-12T05:03:54;1.23;;;1.23;;
9330;SDS011;4704;50.470;12.072;2022-09-12T05:06:22;1.60;;;1.50;;
9330;SDS011;4704;50.470;12.072;2022-09-12T05:08:49;1.50;;;1.40;;
9330;SDS011;4704;50.470;12.072;2022-09-12T05:11:17;1.42;;;1.33;;
9330;SDS011;4704;50.470;12.072;2022-09-12T05:13:45;1.20;;;1.20;;
9330;SDS011;4704;50.470;12.072;2022-09-12T05:16:13;1.40;;;1.30;;
9330;SDS011;4704;50.470;12.072;2022-09-12T05:18:41;1.13;;;1.13;;
9330;SDS011;4704;50.470;12.072;2022-09-12T05:21:10;1.30;;;1.20;;
9330;SDS011;4704;50.470;12.072;2022-09-12T05:23:38;1.35;;;1.25;;
9330;SDS011;4704;50.470;12.072;2022-09-12T05:26:06;1.10;;;1.10;;
9330;SDS011;4704;50.470;12.072;2022-09-12T05:28:34;1.10;;;1.10;;
9330;SDS011;4704;50.470;12.072;2022-09-12T05:31:02;1.27;;;1.20;;
9330;SDS011;4704;50.470;12.072;2022-09-12T05:33:30;1.10;;;1.10;;
9330;SDS011;4704;50.470;12.072;2022-09-12T05:35:59;1.40;;;1.30;;
9330;SDS011;4704;50.470;12.072;2022-09-12T05:38:26;1.10;;;1.10;;
9330;SDS011;4704;50.470;12.072;2022-09-12T05:40:53;1.02;;;1.02;;
9330;SDS011;4704;50.470;12.072;2022-09-12T05:43:21;1.38;;;1.27;;
9330;SDS011;4704;50.470;12.072;2022-09-12T05:45:48;1.15;;;1.15;;
9330;SDS011;4704;50.470;12.072;2022-09-12T05:48:15;1.40;;;1.30;;
9330;SDS011;4704;50.470;12.072;2022-09-12T05:50:43;1.15;;;1.10;;
9330;SDS011;4704;50.470;12.072;2022-09-12T05:53:11;1.23;;;1.13;;
9330;SDS011;4704;50.470;12.072;2022-09-12T05:55:39;1.08;;;1.08;;
9330;SDS011;4704;50.470;12.072;2022-09-12T05:58:06;1.10;;;1.10;;
9330;SDS011;4704;50.470;12.072;2022-09-12T06:00:34;1.00;;;1.00;;
9330;SDS011;4704;50.470;12.072;2022-09-12T06:03:01;1.10;;;1.10;;
9330;SDS011;4704;50.470;12.072;2022-09-12T06:05:28;1.10;;;1.10;;
9330;SDS011;4704;50.470;12.072;2022-09-12T06:07:58;1.00;;;1.00;;
9330;SDS011;4704;50.470;12.072;2022-09-12T06:10:27;1.40;;;1.30;;
9330;SDS011;4704;50.470;12.072;2022-09-12T06:12:54;1.00;;;1.00;;
9330;SDS011;4704;50.470;12.072;2022-09-12T06:15:21;1.15;;;1.15;;
9330;SDS011;4704;50.470;12.072;2022-09-12T06:17:49;1.17;;;1.17;;
9330;SDS011;4704;50.470;12.072;2022-09-12T06:20:16;1.05;;;1.05;;
9330;SDS011;4704;50.470;12.072;2022-09-12T06:22:45;1.20;;;1.10;;
9330;SDS011;4704;50.470;12.072;2022-09-12T06:25:12;1.00;;;1.00;;
9330;SDS011;4704;50.470;12.072;2022-09-12T06:27:41;1.00;;;1.00;;
9330;SDS011;4704;50.470;12.072;2022-09-12T06:30:09;1.63;;;1.10;;
9330;SDS011;4704;50.470;12.072;2022-09-12T06:32:36;1.05;;;1.02;;
9330;SDS011;4704;50.470;12.072;2022-09-12T06:35:04;1.27;;;1.17;;
9330;SDS011;4704;50.470;12.072;2022-09-12T06:37:31;1.15;;;1.05;;
9330;SDS011;4704;50.470;12.072;2022-09-12T06:39:58;1.95;;;1.10;;
9330;SDS011;4704;50.470;12.072;2022-09-12T06:42:26;1.10;;;1.10;;
9330;SDS011;4704;50.470;12.072;2022-09-12T06:44:55;0.93;;;0.93;;
9330;SDS011;4704;50.470;12.072;2022-09-12T06:47:22;1.65;;;1.10;;
9330;SDS011;4704;50.470;12.072;2022-09-12T06:49:50;1.20;;;1.10;;
9330;SDS011;4704;50.470;12.072;2022-09-12T06:52:17;2.55;;;1.30;;
9330;SDS011;4704;50.470;12.072;2022-09-12T06:54:44;4.68;;;1.17;;
9330;SDS011;4704;50.470;12.072;2022-09-12T06:57:11;3.28;;;1.30;;
9330;SDS011;4704;50.470;12.072;2022-09-12T06:59:40;2.15;;;1.20;;
9330;SDS011;4704;50.470;12.072;2022-09-12T07:02:09;1.70;;;1.25;;
9330;SDS011;4704;50.470;12.072;2022-09-12T07:04:36;4.15;;;1.10;;
9330;SDS011;4704;50.470;12.072;2022-09-12T07:07:04;1.98;;;1.00;;
9330;SDS011;4704;50.470;12.072;2022-09-12T07:09:31;1.30;;;1.10;;
9330;SDS011;4704;50.470;12.072;2022-09-12T07:11:58;1.60;;;1.15;;
9330;SDS011;4704;50.470;12.072;2022-09-12T07:14:28;1.00;;;0.95;;
9330;SDS011;4704;50.470;12.072;2022-09-12T07:16:56;1.40;;;1.10;;
9330;SDS011;4704;50.470;12.072;2022-09-12T07:19:25;1.35;;;1.25;;
9330;SDS011;4704;50.470;12.072;2022-09-12T07:21:52;1.20;;;1.10;;
9330;SDS011;4704;50.470;12.072;2022-09-12T07:24:19;1.35;;;1.23;;
9330;SDS011;4704;50.470;12.072;2022-09-12T07:26:47;1.17;;;1.15;;
9330;SDS011;4704;50.470;12.072;2022-09-12T07:29:15;2.78;;;1.30;;
9330;SDS011;4704;50.470;12.072;2022-09-12T07:31:43;1.20;;;1.10;;
9330;SDS011;4704;50.470;12.072;2022-09-12T07:34:10;1.17;;;0.90;;
9330;SDS011;4704;50.470;12.072;2022-09-12T07:36:39;0.82;;;0.82;;
9330;SDS011;4704;50.470;12.072;2022-09-12T07:39:06;1.02;;;1.00;;
9330;SDS011;4704;50.470;12.072;2022-09-12T07:41:34;1.00;;;1.00;;
9330;SDS011;4704;50.470;12.072;2022-09-12T07:44:02;1.20;;;1.10;;
9330;SDS011;4704;50.470;12.072;2022-09-12T07:46:30;1.20;;;1.10;;
9330;SDS011;4704;50.470;12.072;2022-09-12T07:48:59;1.00;;;1.00;;
9330;SDS011;4704;50.470;12.072;2022-09-12T07:51:27;2.40;;;1.73;;
9330;SDS011;4704;50.470;12.072;2022-09-12T07:53:56;1.35;;;1.25;;
9330;SDS011;4704;50.470;12.072;2022-09-12T07:56:24;1.10;;;1.10;;
9330;SDS011;4704;50.470;12.072;2022-09-12T07:58:53;1.23;;;1.13;;
9330;SDS011;4704;50.470;12.072;2022-09-12T08:01:20;1.20;;;1.10;;
9330;SDS011;4704;50.470;12.072;2022-09-12T08:03:48;1.20;;;1.15;;
9330;SDS011;4704;50.470;12.072;2022-09-12T08:06:17;1.00;;;1.00;;
9330;SDS011;4704;50.470;12.072;2022-09-12T08:08:45;1.40;;;1.30;;
9330;SDS011;4704;50.470;12.072;2022-09-12T08:11:15;1.23;;;1.13;;
9330;SDS011;4704;50.470;12.072;2022-09-12T08:13:42;1.27;;;1.17;;
9330;SDS011;4704;50.470;12.072;2022-09-12T08:16:11;1.30;;;1.20;;
9330;SDS011;4704;50.470;12.072;2022-09-12T08:18:39;1.00;;;0.90;;
9330;SDS011;4704;50.470;12.072;2022-09-12T08:21:09;1.15;;;1.10;;
9330;SDS011;4704;50.470;12.072;2022-09-12T08:23:38;1.00;;;1.00;;
9330;SDS011;4704;50.470;12.072;2022-09-12T08:26:06;1.15;;;1.10;;
9330;SDS011;4704;50.470;12.072;2022-09-12T08:28:35;1.27;;;1.10;;
9330;SDS011;4704;50.470;12.072;2022-09-12T08:31:04;1.25;;;1.15;;
9330;SDS011;4704;50.470;12.072;2022-09-12T08:33:32;1.55;;;1.20;;
9330;SDS011;4704;50.470;12.072;2022-09-12T08:36:03;1.20;;;1.10;;
9330;SDS011;4704;50.470;12.072;2022-09-12T08:38:31;1.30;;;1.20;;
9330;SDS011;4704;50.470;12.072;2022-09-12T08:41:00;1.10;;;1.10;;
9330;SDS011;4704;50.470;12.072;2022-09-12T08:43:31;1.20;;;1.10;;
9330;SDS011;4704;50.470;12.072;2022-09-12T08:46:03;1.38;;;1.20;;
9330;SDS011;4704;50.470;12.072;2022-09-12T08:48:34;1.10;;;1.10;;
9330;SDS011;4704;50.470;12.072;2022-09-12T08:51:02;1.30;;;1.20;;
9330;SDS011;4704;50.470;12.072;2022-09-12T08:53:30;1.10;;;1.10;;
9330;SDS011;4704;50.470;12.072;2022-09-12T08:56:00;1.40;;;1.30;;
9330;SDS011;4704;50.470;12.072;2022-09-12T08:58:28;1.75;;;1.25;;
9330;SDS011;4704;50.470;12.072;2022-09-12T09:01:00;1.20;;;1.10;;
9330;SDS011;4704;50.470;12.072;2022-09-12T09:03:42;1.30;;;1.20;;
9330;SDS011;4704;50.470;12.072;2022-09-12T09:06:14;1.30;;;1.20;;
9330;SDS011;4704;50.470;12.072;2022-09-12T09:08:46;1.45;;;1.35;;
9330;SDS011;4704;50.470;12.072;2022-09-12T09:11:28;1.38;;;1.27;;
9330;SDS011;4704;50.470;12.072;2022-09-12T09:14:06;1.90;;;1.80;;
9330;SDS011;4704;50.470;12.072;2022-09-12T09:16:55;1.50;;;1.40;;
9330;SDS011;4704;50.470;12.072;2022-09-12T09:19:27;1.67;;;1.58;;
9330;SDS011;4704;50.470;12.072;2022-09-12T09:21:57;1.38;;;1.27;;
9330;SDS011;4704;50.470;12.072;2022-09-12T09:24:25;1.65;;;1.55;;
9330;SDS011;4704;50.470;12.072;2022-09-12T09:26:55;1.65;;;1.55;;
9330;SDS011;4704;50.470;12.072;2022-09-12T09:29:23;1.42;;;1.33;;
9330;SDS011;4704;50.470;12.072;2022-09-12T09:31:54;1.40;;;1.30;;
9330;SDS011;4704;50.470;12.072;2022-09-12T09:34:25;1.48;;;1.38;;
9330;SDS011;4704;50.470;12.072;2022-09-12T09:36:56;1.90;;;1.80;;
9330;SDS011;4704;50.470;12.072;2022-09-12T09:39:35;1.45;;;1.35;;
9330;SDS011;4704;50.470;12.072;2022-09-12T09:42:10;1.50;;;1.40;;
9330;SDS011;4704;50.470;12.072;2022-09-12T09:44:38;1.98;;;1.88;;
9330;SDS011;4704;50.470;12.072;2022-09-12T09:47:07;1.50;;;1.40;;
9330;SDS011;4704;50.470;12.072;2022-09-12T09:49:37;1.60;;;1.50;;
9330;SDS011;4704;50.470;12.072;2022-09-12T09:52:05;2.05;;;1.80;;
9330;SDS011;4704;50.470;12.072;2022-09-12T09:54:34;1.83;;;1.73;;
9330;SDS011;4704;50.470;12.072;2022-09-12T09:57:02;1.73;;;1.63;;
9330;SDS011;4704;50.470;12.072;2022-09-12T09:59:30;1.73;;;1.63;;
9330;SDS011;4704;50.470;12.072;2022-09-12T10:01:58;2.03;;;1.90;;
9330;SDS011;4704;50.470;12.072;2022-09-12T10:04:28;1.90;;;1.80;;
9330;SDS011;4704;50.470;12.072;2022-09-12T10:06:57;1.70;;;1.60;;
9330;SDS011;4704;50.470;12.072;2022-09-12T10:09:25;1.50;;;1.40;;
9330;SDS011;4704;50.470;12.072;2022-09-12T10:11:53;1.75;;;1.65;;
9330;SDS011;4704;50.470;12.072;2022-09-12T10:14:32;1.90;;;1.70;;
9330;SDS011;4704;50.470;12.072;2022-09-12T10:17:01;1.70;;;1.60;;
9330;SDS011;4704;50.470;12.072;2022-09-12T10:19:32;1.50;;;1.40;;
9330;SDS011;4704;50.470;12.072;2022-09-12T10:22:02;1.70;;;1.60;;
9330;SDS011;4704;50.470;12.072;2022-09-12T10:24:31;1.90;;;1.80;;
9330;SDS011;4704;50.470;12.072;2022-09-12T10:27:05;1.38;;;1.27;;
9330;SDS011;4704;50.470;12.072;2022-09-12T10:29:34;1.85;;;1.75;;
9330;SDS011;4704;50.470;12.072;2022-09-12T10:32:08;1.90;;;1.80;;
9330;SDS011;4704;50.470;12.072;2022-09-12T10:34:37;2.00;;;1.90;;
9330;SDS011;4704;50.470;12.072;2022-09-12T10:37:07;1.95;;;1.75;;
9330;SDS011;4704;50.470;12.072;2022-09-12T10:39:36;1.73;;;1.63;;
9330;SDS011;4704;50.470;12.072;2022-09-12T10:42:04;2.17;;;2.05;;
9330;SDS011;4704;50.470;12.072;2022-09-12T10:44:32;1.80;;;1.70;;
9330;SDS011;4704;50.470;12.072;2022-09-12T10:49:44;2.28;;;2.08;;
9330;SDS011;4704;50.470;12.072;2022-09-12T10:52:17;1.70;;;1.60;;
9330;SDS011;4704;50.470;12.072;2022-09-12T10:54:47;2.00;;;1.90;;
9330;SDS011;4704;50.470;12.072;2022-09-12T10:57:31;2.00;;;1.90;;
9330;SDS011;4704;50.470;12.072;2022-09-12T11:00:03;1.80;;;1.70;;
9330;SDS011;4704;50.470;12.072;2022-09-12T11:02:39;1.80;;;1.67;;
9330;SDS011;4704;50.470;12.072;2022-09-12T11:05:11;1.85;;;1.75;;
9330;SDS011;4704;50.470;12.072;2022-09-12T11:07:42;2.08;;;1.98;;
9330;SDS011;4704;50.470;12.072;2022-09-12T11:10:22;1.90;;;1.80;;
9330;SDS011;4704;50.470;12.072;2022-09-12T11:12:54;2.13;;;2.00;;
9330;SDS011;4704;50.470;12.072;2022-09-12T11:15:29;1.80;;;1.70;;
9330;SDS011;4704;50.470;12.072;2022-09-12T11:17:59;1.90;;;1.80;;
9330;SDS011;4704;50.470;12.072;2022-09-12T11:20:40;1.80;;;1.70;;
9330;SDS011;4704;50.470;12.072;2022-09-12T11:26:12;1.70;;;1.60;;
9330;SDS011;4704;50.470;12.072;2022-09-12T11:28:46;1.90;;;1.70;;
9330;SDS011;4704;50.470;12.072;2022-09-12T11:31:21;1.60;;;1.50;;
9330;SDS011;4704;50.470;12.072;2022-09-12T11:33:51;2.17;;;1.73;;
9330;SDS011;4704;50.470;12.072;2022-09-12T11:36:22;1.90;;;1.80;;
9330;SDS011;4704;50.470;12.072;2022-09-12T11:38:59;2.20;;;2.00;;
9330;SDS011;4704;50.470;12.072;2022-09-12T11:41:30;1.83;;;1.73;;
9330;SDS011;4704;50.470;12.072;2022-09-12T11:44:00;1.80;;;1.70;;
9330;SDS011;4704;50.470;12.072;2022-09-12T11:46:30;1.70;;;1.60;;
9330;SDS011;4704;50.470;12.072;2022-09-12T11:49:01;1.77;;;1.67;;
9330;SDS011;4704;50.470;12.072;2022-09-12T11:51:32;2.13;;;1.92;;
9330;SDS011;4704;50.470;12.072;2022-09-12T11:54:03;1.67;;;1.58;;
9330;SDS011;4704;50.470;12.072;2022-09-12T11:56:34;1.65;;;1.55;;
9330;SDS011;4704;50.470;12.072;2022-09-12T11:59:08;1.80;;;1.70;;
9330;SDS011;4704;50.470;12.072;2022-09-12T12:01:37;1.63;;;1.52;;
9330;SDS011;4704;50.470;12.072;2022-09-12T12:04:07;1.70;;;1.60;;
9330;SDS011;4704;50.470;12.072;2022-09-12T12:06:38;1.58;;;1.48;;
9330;SDS011;4704;50.470;12.072;2022-09-12T12:09:06;1.70;;;1.60;;
9330;SDS011;4704;50.470;12.072;2022-09-12T12:11:36;1.85;;;1.75;;
9330;SDS011;4704;50.470;12.072;2022-09-12T12:14:04;1.70;;;1.60;;
9330;SDS011;4704;50.470;12.072;2022-09-12T12:16:35;1.80;;;1.70;;
9330;SDS011;4704;50.470;12.072;2022-09-12T12:19:05;1.70;;;1.60;;
9330;SDS011;4704;50.470;12.072;2022-09-12T12:21:37;1.70;;;1.60;;
9330;SDS011;4704;50.470;12.072;2022-09-12T12:24:13;1.60;;;1.50;;
9330;SDS011;4704;50.470;12.072;2022-09-12T12:26:44;1.73;;;1.63;;
9330;SDS011;4704;50.470;12.072;2022-09-12T12:29:34;1.80;;;1.70;;
9330;SDS011;4704;50.470;12.072;2022-09-12T12:32:18;1.70;;;1.60;;
9330;SDS011;4704;50.470;12.072;2022-09-12T12:34:46;1.73;;;1.63;;
9330;SDS011;4704;50.470;12.072;2022-09-12T12:40:01;1.67;;;1.58;;
9330;SDS011;4704;50.470;12.072;2022-09-12T12:45:56;1.63;;;1.52;;
9330;SDS011;4704;50.470;12.072;2022-09-12T12:48:25;1.70;;;1.60;;
9330;SDS011;4704;50.470;12.072;2022-09-12T12:53:39;1.77;;;1.67;;
9330;SDS011;4704;50.470;12.072;2022-09-12T12:56:20;1.70;;;1.60;;
9330;SDS011;4704;50.470;12.072;2022-09-12T12:58:55;1.60;;;1.50;;
9330;SDS011;4704;50.470;12.072;2022-09-12T13:01:24;1.63;;;1.52;;
9330;SDS011;4704;50.470;12.072;2022-09-12T13:03:53;1.70;;;1.60;;
9330;SDS011;4704;50.470;12.072;2022-09-12T13:06:24;1.65;;;1.55;;
9330;SDS011;4704;50.470;12.072;2022-09-12T13:08:56;1.45;;;1.35;;
9330;SDS011;4704;50.470;12.072;2022-09-12T13:11:29;1.45;;;1.35;;
9330;SDS011;4704;50.470;12.072;2022-09-12T13:13:57;1.73;;;1.63;;
9330;SDS011;4704;50.470;12.072;2022-09-12T13:16:34;1.58;;;1.48;;
9330;SDS011;4704;50.470;12.072;2022-09-12T13:19:03;1.70;;;1.60;;
9330;SDS011;4704;50.470;12.072;2022-09-12T13:21:31;1.70;;;1.60;;
9330;SDS011;4704;50.470;12.072;2022-09-12T13:23:58;1.50;;;1.40;;
9330;SDS011;4704;50.470;12.072;2022-09-12T13:26:27;1.52;;;1.42;;
9330;SDS011;4704;50.470;12.072;2022-09-12T13:29:08;1.52;;;1.42;;
9330;SDS011;4704;50.470;12.072;2022-09-12T13:31:38;1.70;;;1.60;;
9330;SDS011;4704;50.470;12.072;2022-09-12T13:34:06;1.85;;;1.50;;
9330;SDS011;4704;50.470;12.072;2022-09-12T13:36:44;1.50;;;1.40;;
9330;SDS011;4704;50.470;12.072;2022-09-12T13:39:14;1.67;;;1.58;;
9330;SDS011;4704;50.470;12.072;2022-09-12T13:41:55;1.70;;;1.60;;
9330;SDS011;4704;50.470;12.072;2022-09-12T13:44:27;1.75;;;1.65;;
9330;SDS011;4704;50.470;12.072;2022-09-12T13:46:58;1.70;;;1.60;;
9330;SDS011;4704;50.470;12.072;2022-09-12T13:49:28;1.60;;;1.50;;
9330;SDS011;4704;50.470;12.072;2022-09-12T13:51:59;1.60;;;1.50;;
9330;SDS011;4704;50.470;12.072;2022-09-12T13:54:28;1.42;;;1.33;;
9330;SDS011;4704;50.470;12.072;2022-09-12T13:56:56;1.50;;;1.40;;
9330;SDS011;4704;50.470;12.072;2022-09-12T13:59:24;1.50;;;1.40;;
9330;SDS011;4704;50.470;12.072;2022-09-12T14:01:51;1.55;;;1.45;;
9330;SDS011;4704;50.470;12.072;2022-09-12T14:04:22;1.60;;;1.50;;
9330;SDS011;4704;50.470;12.072;2022-09-12T14:07:16;1.50;;;1.38;;
9330;SDS011;4704;50.470;12.072;2022-09-12T14:09:51;1.77;;;1.67;;
9330;SDS011;4704;50.470;12.072;2022-09-12T14:12:21;1.85;;;1.70;;
9330;SDS011;4704;50.470;12.072;2022-09-12T14:14:50;1.98;;;1.50;;
9330;SDS011;4704;50.470;12.072;2022-09-12T14:17:22;1.65;;;1.55;;
9330;SDS011;4704;50.470;12.072;2022-09-12T14:19:54;1.85;;;1.60;;
9330;SDS011;4704;50.470;12.072;2022-09-12T14:22:23;1.65;;;1.55;;
9330;SDS011;4704;50.470;12.072;2022-09-12T14:24:54;1.80;;;1.70;;
9330;SDS011;4704;50.470;12.072;2022-09-12T14:27:23;1.58;;;1.48;;
9330;SDS011;4704;50.470;12.072;2022-09-12T14:29:51;1.48;;;1.38;;
9330;SDS011;4704;50.470;12.072;2022-09-12T14:32:22;1.55;;;1.45;;
9330;SDS011;4704;50.470;12.072;2022-09-12T14:35:15;1.80;;;1.70;;
9330;SDS011;4704;50.470;12.072;2022-09-12T14:37:45;1.58;;;1.45;;
9330;SDS011;4704;50.470;12.072;2022-09-12T14:40:14;2.85;;;1.48;;
9330;SDS011;4704;50.470;12.072;2022-09-12T14:42:42;1.60;;;1.50;;
9330;SDS011;4704;50.470;12.072;2022-09-12T14:45:14;1.95;;;1.50;;
9330;SDS011;4704;50.470;12.072;2022-09-12T14:47:42;1.70;;;1.60;;
9330;SDS011;4704;50.470;12.072;2022-09-12T14:50:17;1.30;;;1.25;;
9330;SDS011;4704;50.470;12.072;2022-09-12T14:52:44;1.80;;;1.70;;
9330;SDS011;4704;50.470;12.072;2022-09-12T14:55:19;1.60;;;1.50;;
9330;SDS011;4704;50.470;12.072;2022-09-12T14:57:59;1.60;;;1.50;;
9330;SDS011;4704;50.470;12.072;2022-09-12T15:00:33;1.60;;;1.50;;
9330;SDS011;4704;50.470;12.072;2022-09-12T15:03:14;1.70;;;1.60;;
9330;SDS011;4704;50.470;12.072;2022-09-12T15:05:50;1.80;;;1.70;;
9330;SDS011;4704;50.470;12.072;2022-09-12T15:08:17;1.60;;;1.50;;
9330;SDS011;4704;50.470;12.072;2022-09-12T15:10:45;2.00;;;1.80;;
9330;SDS011;4704;50.470;12.072;2022-09-12T15:13:19;1.70;;;1.60;;
9330;SDS011;4704;50.470;12.072;2022-09-12T15:15:48;1.35;;;1.25;;
9330;SDS011;4704;50.470;12.072;2022-09-12T15:18:15;1.55;;;1.45;;
9330;SDS011;4704;50.470;12.072;2022-09-12T15:20:44;1.50;;;1.40;;
9330;SDS011;4704;50.470;12.072;2022-09-12T15:23:18;1.50;;;1.40;;
9330;SDS011;4704;50.470;12.072;2022-09-12T15:25:46;1.85;;;1.75;;
9330;SDS011;4704;50.470;12.072;2022-09-12T15:28:15;1.70;;;1.60;;
9330;SDS011;4704;50.470;12.072;2022-09-12T15:30:43;1.65;;;1.33;;
9330;SDS011;4704;50.470;12.072;2022-09-12T15:33:11;1.70;;;1.60;;